Sherwood, Texas
Current Conditions -  °F | °C
As of 5:51 AM on Saturday 22 Nov 2014 (Local Time) from KSJT Reporting Station
Broken Clouds Broken Clouds  
Wind Chill: 62°   Ceiling: 2700
Heat Index: 62°   Visibility: 10mi
Dew Point: 59°   Wind: 6mph
Humidity: 90%   Direction: 140°SE
Pressure: 29.94"   Gusts: NA
Location:  31.3151°N, 100.959°W
Report Text: KSJT 221151Z AUTO 14005KT 10SM BKN027 BKN031 17/15 A2994 RMK AO2 SLP126 T01670150 10167 20144 55006
Loading
Personal Weather Stations






























Interactive Weather Map New forecast layout! Learn more

10-Day Weather Forecast

Advertisements
Track Severe Weather on mobile